Latest Weather Observations for Aireys Inlet

IDV60801

Issued at 9:32 pm EDT Friday 6 December 2019 (issued every 10 minutes, with the page automatically refreshed every 10 minutes)

About weather observations | Map of weather stations | Latest weather observations for VIC | Other Formats
Station Details ID: 090180 Name: AIREYS INLET Lat: -38.46 Lon: 144.09 Height: 105.0 m
Data from the previous 72 hours. | See also: Recent months at Aireys Inlet
Date/Time
EDT
Temp
°C
App
Temp
°C
Dew
Point
°C
Rel
Hum
%
Delta-T
°C
Wind Press
QNH
hPa
Press
MSL
hPa
Rain since
9am
mm
Dir  Spd
km/h
Gust
km/h
Spd
kts
Gust
kts
06/09:30pm 12.1 8.8 4.3 59 3.5 W 11 17 6 9 - - 0.0
06/09:00pm 12.3 7.4 4.3 58 3.6 WSW 19 28 10 15 - - 0.0
06/08:30pm 12.3 6.8 4.0 57 3.8 W 22 39 12 21 - - 0.0
06/08:00pm 12.9 7.4 4.1 55 4.0 WSW 22 35 12 19 - - 0.0
06/07:30pm 14.0 6.4 4.0 51 4.6 WSW 33 54 18 29 - - 0.0
06/07:00pm 14.4 8.7 4.7 52 4.5 WSW 24 37 13 20 - - 0.0
06/06:30pm 15.2 8.4 5.1 51 4.8 W 30 44 16 24 - - 0.0
06/06:00pm 15.7 9.6 5.0 49 5.1 WSW 26 44 14 24 - - 0.0
06/05:35pm 15.8 8.4 5.1 49 5.1 W 33 54 18 29 - - 0.0
06/05:30pm 16.1 8.2 4.2 45 5.6 W 35 54 19 29 - - 0.0
06/05:07pm 17.1 10.7 5.1 45 5.8 W 28 52 15 28 - - 0.0
06/05:00pm 16.2 9.0 4.9 47 5.4 W 32 48 17 26 - - 0.0
06/04:34pm 16.3 9.3 5.9 50 5.1 W 32 50 17 27 - - 0.0
06/04:30pm 15.8 9.0 5.1 49 5.1 W 30 46 16 25 - - 0.0
06/04:27pm 16.4 10.0 5.1 47 5.4 W 28 46 15 25 - - 0.0
06/04:00pm 17.6 13.1 6.8 49 5.4 W 20 37 11 20 - - 0.0
06/03:53pm 17.0 10.4 5.9 48 5.4 W 30 48 16 26 - - 0.0
06/03:30pm 17.5 10.8 5.8 46 5.7 WSW 30 44 16 24 - - 0.0
06/03:03pm 17.0 10.6 5.0 45 5.8 W 28 50 15 27 - - 0.0
06/03:00pm 18.4 12.6 6.3 45 6.0 W 26 50 14 27 - - 0.0
06/02:30pm 17.3 10.6 5.6 46 5.7 W 30 52 16 28 - - 0.0
06/02:02pm 18.6 12.5 6.8 46 5.9 WSW 28 46 15 25 - - 0.0
06/02:00pm 18.4 12.0 6.9 47 5.8 WSW 30 46 16 25 - - 0.0
06/01:30pm 17.5 11.6 5.8 46 5.7 W 26 43 14 23 - - 0.0
06/01:00pm 16.7 11.2 7.6 55 4.6 W 26 37 14 20 - - 0.0
06/12:30pm 17.7 11.1 5.9 46 5.8 W 30 50 16 27 - - 0.0
06/12:00pm 16.4 7.8 4.8 46 5.5 W 39 59 21 32 - - 0.0
06/11:32am 16.2 10.0 6.3 52 4.8 WSW 28 46 15 25 - - 0.0
06/11:30am 16.1 9.6 6.3 52 4.8 WSW 30 41 16 22 - - 0.0
06/11:00am 15.2 10.2 6.5 56 4.2 W 22 32 12 17 - - 0.0
06/10:41am 14.9 8.0 6.5 57 4.1 W 32 56 17 30 - - 0.0
06/10:30am 14.9 10.5 6.7 58 4.0 W 19 33 10 18 - - 0.0
06/10:00am 14.9 10.1 7.5 61 3.7 WSW 22 35 12 19 - - 0.0
06/09:30am 13.2 8.5 7.9 70 2.6 WSW 22 35 12 19 - - 0.0
06/09:00am 13.3 9.2 8.0 70 2.6 W 19 28 10 15 - - 0.0
06/08:30am 12.8 8.5 7.7 71 2.5 W 20 32 11 17 - - 0.0
06/08:00am 12.5 8.5 8.2 75 2.1 W 19 26 10 14 - - 0.0
06/07:30am 11.3 8.5 8.7 84 1.3 NW 13 17 7 9 - - 0.0
06/07:00am 11.3 7.7 8.2 81 1.5 WNW 17 20 9 11 - - 0.0
06/06:30am 10.9 7.3 8.3 84 1.3 WNW 17 26 9 14 - - 0.0
06/06:00am 10.7 8.2 8.1 84 1.3 NW 11 17 6 9 - - 0.0
06/05:30am 11.0 8.7 7.5 79 1.7 WNW 9 15 5 8 - - 0.0
06/05:00am 11.0 8.0 7.5 79 1.7 W 13 19 7 10 - - 0.0
06/04:30am 11.0 7.5 7.3 78 1.8 W 15 20 8 11 - - 0.0
06/04:00am 11.0 7.1 7.3 78 1.8 W 17 24 9 13 - - 0.0
06/03:30am 11.3 8.5 6.8 74 2.1 W 11 19 6 10 - - 0.0
06/03:00am 11.3 8.0 6.6 73 2.2 W 13 20 7 11 - - 0.0
06/02:30am 11.3 7.7 6.6 73 2.2 W 15 24 8 13 - - 0.0
06/02:00am 11.3 8.8 6.6 73 2.2 WSW 9 15 5 8 - - 0.0
06/01:30am 11.2 7.6 6.7 74 2.1 WSW 15 24 8 13 - - 0.0
06/01:00am 11.5 8.3 7.0 74 2.2 WSW 13 22 7 12 - - 0.0
06/12:30am 11.6 8.9 7.3 75 2.1 W 11 20 6 11 - - 0.0
06/12:00am 12.2 8.1 7.7 74 2.2 W 19 26 10 14 - - 0.0
 
Date/Time
EDT
Temp
°C
App
Temp
°C
Dew
Point
°C
Rel
Hum
%
Delta-T
°C
Wind Press
QNH
hPa
Press
MSL
hPa
Rain since
9am
mm
Dir  Spd
km/h
Gust
km/h
Spd
kts
Gust
kts
05/11:30pm 12.6 9.1 7.3 70 2.6 W 15 26 8 14 - - 0.0
05/11:00pm 12.7 8.5 7.4 70 2.6 WSW 19 28 10 15 - - 0.0
05/10:30pm 12.7 9.1 8.4 75 2.1 W 17 26 9 14 - - 0.0
05/10:00pm 13.2 10.4 8.7 74 2.3 W 13 22 7 12 - - 0.0
05/09:30pm 13.3 9.8 8.6 73 2.4 W 17 26 9 14 - - 0.0
05/09:00pm 13.4 9.4 9.1 75 2.2 W 20 33 11 18 - - 0.0
05/08:30pm 13.7 10.0 9.4 75 2.2 W 19 30 10 16 - - 0.0
05/08:00pm 14.3 10.8 8.7 69 2.8 W 17 30 9 16 - - 0.0
05/07:30pm 15.1 10.6 8.6 65 3.3 W 22 32 12 17 - - 0.0
05/07:00pm 15.3 10.1 8.8 65 3.3 W 26 39 14 21 - - 0.0
05/06:30pm 16.3 9.8 8.8 61 3.9 W 33 59 18 32 - - 0.0
05/06:01pm 16.7 11.1 8.7 59 4.1 W 28 50 15 27 - - 0.0
05/06:00pm 17.1 11.9 8.8 58 4.3 W 26 50 14 27 - - 0.0
05/05:30pm 16.9 9.2 8.8 59 4.2 W 39 61 21 33 - - 0.0
05/05:00pm 17.3 10.1 9.2 59 4.2 W 37 57 20 31 - - 0.0
05/04:33pm 17.1 9.9 9.3 60 4.1 W 37 57 20 31 - - 0.0
05/04:30pm 18.0 11.3 9.6 58 4.4 W 35 50 19 27 - - 0.0
05/04:00pm 18.8 13.0 9.3 54 5.0 W 30 48 16 26 - - 0.0
05/03:34pm 18.8 12.5 9.0 53 5.1 W 32 52 17 28 - - 0.0
05/03:30pm 18.6 11.3 8.8 53 5.1 W 37 52 20 28 - - 0.0
05/03:00pm 17.7 10.7 8.3 54 4.8 W 35 56 19 30 - - 0.0
05/02:30pm 18.4 12.0 9.5 56 4.7 W 33 52 18 28 - - 0.0
05/02:00pm 17.8 11.0 9.4 58 4.4 W 35 56 19 30 - - 0.0
05/01:40pm 18.0 12.1 11.1 64 3.8 W 33 52 18 28 - - 0.0
05/01:30pm 16.4 10.6 11.6 73 2.6 W 33 48 18 26 - - 0.0
05/01:06pm 17.6 12.8 11.6 68 3.3 WNW 28 50 15 27 - - 0.0
05/01:00pm 16.8 13.5 12.7 77 2.3 WNW 22 43 12 23 - - 0.0
05/12:30pm 17.1 13.2 12.0 72 2.8 WNW 24 43 13 23 - - 0.0
05/12:04pm 15.9 11.2 11.9 77 2.2 WNW 28 46 15 25 - - 0.0
05/12:00pm 16.1 12.1 11.7 75 2.4 WNW 24 41 13 22 - - 0.0
05/11:30am 15.9 11.0 11.3 74 2.5 WNW 28 54 15 29 - - 0.0
05/11:21am 15.5 9.9 10.3 71 2.7 WNW 30 54 16 29 - - 0.0
05/11:00am 15.9 12.0 10.9 72 2.7 WNW 22 39 12 21 - - 0.0
05/10:30am 14.9 10.2 10.5 75 2.3 WNW 26 43 14 23 - - 0.0
05/10:00am 13.8 9.9 10.8 82 1.6 WNW 22 33 12 18 - - 0.0
05/09:30am 13.6 10.0 10.4 81 1.7 WNW 20 35 11 19 - - 0.0
05/09:00am 12.6 9.5 10.3 86 1.2 NW 17 35 9 19 - - 0.0
05/08:30am 12.1 8.8 9.7 85 1.2 NW 17 28 9 15 - - 0.0
05/08:00am 11.9 8.9 9.3 84 1.3 WNW 15 26 8 14 - - 0.0
05/07:30am 11.9 8.7 8.4 79 1.7 WNW 15 30 8 16 - - 0.0
05/07:00am 11.8 8.2 8.5 80 1.6 WNW 17 28 9 15 - - 0.0
05/06:30am 11.9 8.6 8.0 77 1.9 WNW 15 28 8 15 - - 0.0
05/06:00am 11.9 8.9 7.6 75 2.1 WNW 13 26 7 14 - - 0.0
05/05:30am 12.0 9.3 7.3 73 2.3 W 11 24 6 13 - - 0.0
05/05:00am 11.9 10.1 7.2 73 2.3 W 6 13 3 7 - - 0.0
05/04:30am 12.0 9.6 7.1 72 2.4 W 9 15 5 8 - - 0.0
05/04:00am 12.0 8.8 6.9 71 2.5 WNW 13 26 7 14 - - 0.0
05/03:30am 12.2 9.0 6.9 70 2.6 WNW 13 22 7 12 - - 0.0
05/03:00am 12.4 9.2 6.9 69 2.7 WNW 13 24 7 13 - - 0.0
05/02:30am 12.6 8.0 6.6 67 2.9 W 20 43 11 23 - - 0.0
05/02:00am 12.6 7.6 6.6 67 2.9 WNW 22 39 12 21 - - 0.0
05/01:30am 12.9 7.7 7.4 69 2.7 W 24 39 13 21 - - 0.0
05/01:00am 12.9 8.7 8.4 74 2.2 WNW 20 37 11 20 - - 0.0
05/12:30am 13.0 9.8 8.5 74 2.3 WNW 15 26 8 14 - - 0.0
05/12:00am 13.3 9.1 8.2 71 2.5 W 20 32 11 17 - - 0.0
 
Date/Time
EDT
Temp
°C
App
Temp
°C
Dew
Point
°C
Rel
Hum
%
Delta-T
°C
Wind Press
QNH
hPa
Press
MSL
hPa
Rain since
9am
mm
Dir  Spd
km/h
Gust
km/h
Spd
kts
Gust
kts
04/11:30pm 13.1 10.1 7.8 70 2.6 W 13 22 7 12 - - 0.0
04/11:00pm 13.4 9.3 8.0 70 2.7 W 19 33 10 18 - - 0.0
04/10:30pm 13.2 9.5 7.9 70 2.6 W 17 28 9 15 - - 0.0
04/10:00pm 13.2 9.1 7.9 70 2.6 W 19 28 10 15 - - 0.0
04/09:30pm 13.4 10.0 7.8 69 2.8 W 15 28 8 15 - - 0.0
04/09:00pm 13.7 9.6 7.9 68 2.9 WSW 19 35 10 19 - - 0.0
04/08:30pm 13.9 9.8 7.7 66 3.1 WSW 19 35 10 19 - - 0.0
04/08:00pm 14.7 10.5 8.4 66 3.2 W 20 39 11 21 - - 0.0
04/07:30pm 15.9 10.3 8.9 63 3.6 W 28 41 15 22 - - 0.0
04/07:00pm 17.3 12.5 8.7 57 4.5 W 24 41 13 22 - - 0.0
04/06:42pm 17.5 11.9 8.9 57 4.5 W 28 46 15 25 - - 0.0
04/06:30pm 18.1 13.6 8.7 54 4.9 W 22 41 12 22 - - 0.0
04/06:00pm 18.3 12.4 7.7 50 5.4 W 28 43 15 23 - - 0.0
04/05:30pm 19.0 13.6 7.8 48 5.8 WSW 26 43 14 23 - - 0.0
04/05:01pm 18.3 12.4 7.4 49 5.5 W 28 48 15 26 - - 0.0
04/05:00pm 18.4 12.9 7.5 49 5.5 W 26 44 14 24 - - 0.0
04/04:36pm 18.4 12.1 7.2 48 5.7 W 30 48 16 26 - - 0.0
04/04:30pm 17.9 12.0 7.3 50 5.4 W 28 44 15 24 - - 0.0
04/04:00pm 18.5 12.0 6.4 45 6.0 W 30 50 16 27 - - 0.0
04/03:44pm 19.1 13.2 7.5 47 5.9 WNW 28 46 15 25 - - 0.0
04/03:30pm 18.3 11.9 7.1 48 5.7 W 30 44 16 24 - - 0.0
04/03:26pm 18.4 11.8 7.8 50 5.4 W 32 54 17 29 - - 0.0
04/03:21pm 17.7 11.3 6.9 49 5.4 W 30 54 16 29 - - 0.0
04/03:00pm 18.0 11.2 6.8 48 5.6 WNW 32 50 17 27 - - 0.0
04/02:30pm 18.4 11.3 6.6 46 5.9 W 33 57 18 31 - - 0.0
04/02:00pm 17.3 9.0 5.9 47 5.6 W 39 59 21 32 - - 0.0
04/01:31pm 17.5 11.9 7.0 50 5.3 W 26 50 14 27 - - 0.0
04/01:30pm 17.6 12.4 7.1 50 5.3 W 24 41 13 22 - - 0.0
04/01:00pm 15.4 8.8 7.9 61 3.8 W 32 46 17 25 - - 0.0
04/12:30pm 15.6 9.0 7.9 60 3.9 W 32 41 17 22 - - 0.0
04/12:08pm 14.7 9.0 8.4 66 3.2 W 28 46 15 25 - - 0.0
04/12:00pm 14.4 7.4 8.4 67 3.0 WSW 35 48 19 26 - - 0.0
04/11:30am 14.6 8.5 8.3 66 3.2 W 30 54 16 29 - - 0.0
04/11:18am 15.0 9.2 8.0 63 3.5 W 28 50 15 27 - - 0.0
04/11:00am 14.8 10.8 8.3 65 3.3 W 19 44 10 24 - - 0.0
04/10:30am 14.1 9.8 9.3 73 2.5 W 22 35 12 19 - - 0.0
04/10:00am 13.8 10.0 9.0 73 2.4 W 19 32 10 17 - - 0.0
04/09:30am 12.3 8.7 9.9 85 1.2 W 19 24 10 13 - - 0.0
04/09:00am 12.4 8.4 8.9 79 1.8 W 20 39 11 21 - - 0.4
04/08:30am 12.1 7.6 8.4 78 1.8 W 22 33 12 18 - - 0.4
04/08:00am 11.3 8.2 8.7 84 1.3 WNW 15 24 8 13 - - 0.4
04/07:30am 10.6 8.0 9.5 93 0.6 W 13 17 7 9 - - 0.4
04/07:00am 11.1 8.2 8.3 83 1.4 W 13 20 7 11 - - 0.4
04/06:30am 10.8 7.5 8.2 84 1.3 W 15 24 8 13 - - 0.4
04/06:00am 10.4 7.3 8.7 89 0.8 WNW 15 28 8 15 - - 0.4
04/05:30am 10.5 7.3 8.4 87 1.0 W 15 24 8 13 - - 0.4
04/05:00am 10.4 6.8 8.2 86 1.1 WNW 17 22 9 12 - - 0.4
04/04:30am 10.4 7.3 9.0 91 0.7 WNW 15 19 8 10 - - 0.4
04/04:00am 10.3 9.1 9.4 94 0.5 NW 6 6 3 3 - - 0.4
04/03:30am 10.6 8.6 8.7 88 0.9 W 9 13 5 7 - - 0.4
04/03:00am 11.0 7.0 8.1 82 1.4 W 19 26 10 14 - - 0.4
04/02:30am 10.6 7.4 8.5 87 1.0 WNW 15 24 8 13 - - 0.4
04/02:00am 10.8 7.6 8.4 85 1.2 W 15 24 8 13 - - 0.4
04/01:30am 10.7 6.6 8.8 88 0.9 WNW 20 32 11 17 - - 0.4
04/01:00am 10.4 8.3 9.6 95 0.4 WNW 11 19 6 10 - - 0.4
04/12:30am 10.7 7.4 9.5 92 0.6 WNW 17 24 9 13 - - 0.2
04/12:00am 10.6 8.1 9.8 95 0.4 WNW 13 19 7 10 - - 0.2
 
Date/Time
EDT
Temp
°C
App
Temp
°C
Dew
Point
°C
Rel
Hum
%
Delta-T
°C
Wind Press
QNH
hPa
Press
MSL
hPa
Rain since
9am
mm
Dir  Spd
km/h
Gust
km/h
Spd
kts
Gust
kts
03/11:30pm 10.9 7.5 9.2 89 0.9 WNW 17 28 9 15 - - 0.2
03/11:00pm 11.5 6.5 8.2 80 1.6 W 24 35 13 19 - - 0.2
03/10:30pm 11.5 5.7 8.0 79 1.7 W 28 44 15 24 - - 0.2
03/10:00pm 11.5 7.4 8.5 82 1.5 W 20 30 11 16 - - 0.2

Other formats

Comma delimited format used in spreadsheet applications
http://www.bom.gov.au/fwo/IDV60801/IDV60801.94846.axf

JavaScript Object Notation format (JSON) in row-major order
http://www.bom.gov.au/fwo/IDV60801/IDV60801.94846.json

Data quality

Most of these data are generated automatically and are frequently updated. Quality checks on data are not normally performed. It is possible for incorrect values to appear. Refer to information at About Latest Weather Observations and please check the disclaimer before using these data.